Time;durP1;ratioP1;P1;durP2;ratioP2;P2;SDS_P1;SDS_P2;PMS_P1;PMS_P2;Temp;Humidity;BMP_temperature;BMP_pressure;BME280_temperature;BME280_humidity;BME280_pressure;Samples;Min_cycle;Max_cycle;Signal;HPM_P1;HPM_P2
2021/09/16 02:45:15;;;;;;;20.52;14.75;;;23.20;92.10;;;;;;5737216;24;20928;31
2021/09/16 02:47:41;;;;;;;22.85;16.02;;;23.20;92.20;;;;;;4730888;30;20044;-81
2021/09/16 02:50:07;;;;;;;23.75;15.57;;;23.20;92.20;;;;;;4733883;30;20086;-81
2021/09/16 02:52:33;;;;;;;16.00;14.30;;;23.20;92.30;;;;;;4733504;30;20040;-81
2021/09/16 02:54:58;;;;;;;23.00;16.30;;;23.20;92.40;;;;;;4749288;30;20029;-81
2021/09/16 02:57:24;;;;;;;22.45;15.40;;;23.20;92.50;;;;;;4733348;30;20092;-80
2021/09/16 02:59:50;;;;;;;16.48;14.30;;;23.20;92.50;;;;;;4733617;30;20036;-81
2021/09/16 03:02:15;;;;;;;20.65;15.77;;;23.20;92.60;;;;;;4733599;30;20036;-81
2021/09/16 03:04:41;;;;;;;22.05;16.20;;;23.20;92.60;;;;;;4733582;30;20041;-80
2021/09/16 03:07:07;;;;;;;20.67;16.60;;;23.20;92.90;;;;;;4733600;30;20292;-81
2021/09/16 03:09:33;;;;;;;25.30;16.73;;;23.20;93.20;;;;;;4748144;30;20062;-81
2021/09/16 03:11:58;;;;;;;19.08;16.20;;;23.20;93.20;;;;;;4733335;30;20036;-81
2021/09/16 03:14:24;;;;;;;18.35;15.70;;;23.20;93.40;;;;;;4733784;30;20455;-81
2021/09/16 03:16:50;;;;;;;23.25;15.65;;;23.20;93.40;;;;;;4733893;30;20033;-81
2021/09/16 03:19:16;;;;;;;21.98;15.55;;;23.20;93.30;;;;;;4749370;30;20037;-81
2021/09/16 03:21:42;;;;;;;23.92;15.40;;;23.20;93.30;;;;;;4733116;30;20029;-81
2021/09/16 03:24:07;;;;;;;20.77;15.52;;;23.30;93.20;;;;;;4733485;30;20055;-82
2021/09/16 03:26:33;;;;;;;21.10;15.45;;;23.30;93.00;;;;;;4733285;30;20232;-82
2021/09/16 03:28:59;;;;;;;26.10;15.80;;;23.40;92.90;;;;;;4732752;30;20036;-81
2021/09/16 03:31:25;;;;;;;20.58;16.63;;;23.40;92.80;;;;;;4733434;30;20060;-81
2021/09/16 03:33:50;;;;;;;24.85;15.63;;;23.40;92.80;;;;;;4733325;30;20232;-81
2021/09/16 03:36:16;;;;;;;19.65;14.45;;;23.40;92.70;;;;;;4748847;30;20265;-81
2021/09/16 03:38:42;;;;;;;21.17;15.95;;;23.40;92.70;;;;;;4733077;30;20039;-81
2021/09/16 03:41:08;;;;;;;24.50;14.75;;;23.40;92.60;;;;;;4733227;30;20036;-81
2021/09/16 03:43:33;;;;;;;18.73;14.07;;;23.40;92.50;;;;;;4733026;30;20033;-81
2021/09/16 03:45:59;;;;;;;20.27;14.60;;;23.40;92.50;;;;;;4746998;30;20052;-82
2021/09/16 03:48:25;;;;;;;16.48;13.63;;;23.40;92.30;;;;;;4733089;30;20035;-81
2021/09/16 03:50:51;;;;;;;20.08;14.15;;;23.40;92.30;;;;;;4718622;30;20075;-82
2021/09/16 03:53:18;;;;;;;18.15;13.95;;;23.40;92.30;;;;;;4718058;30;20104;-81
2021/09/16 03:55:44;;;;;;;19.85;14.48;;;23.40;92.60;;;;;;4718615;30;20032;-82
2021/09/16 03:58:10;;;;;;;16.08;14.40;;;23.40;92.30;;;;;;4718199;30;20029;-81
2021/09/16 04:00:35;;;;;;;21.20;12.55;;;23.30;92.20;;;;;;4717954;30;20033;-82
2021/09/16 04:03:08;;;;;;;19.23;13.73;;;23.30;92.20;;;;;;4717976;30;20036;-82
2021/09/16 04:05:35;;;;;;;19.30;13.23;;;23.30;92.20;;;;;;4718374;30;20071;-81
2021/09/16 04:08:01;;;;;;;27.43;14.00;;;23.30;92.10;;;;;;4732388;30;20029;-82
2021/09/16 04:10:27;;;;;;;15.53;12.87;;;23.30;92.10;;;;;;4717999;30;20657;-82
2021/09/16 04:12:53;;;;;;;20.60;14.27;;;23.30;92.30;;;;;;4732826;30;20030;-81
2021/09/16 04:15:18;;;;;;;17.80;14.25;;;23.30;92.40;;;;;;4764169;30;20028;-81
2021/09/16 04:17:44;;;;;;;25.52;15.88;;;23.20;92.50;;;;;;4767969;30;20028;-82
2021/09/16 04:20:10;;;;;;;20.75;16.23;;;23.30;92.60;;;;;;4783689;30;20327;-82
2021/09/16 04:22:36;;;;;;;20.83;15.85;;;23.20;92.60;;;;;;4767593;30;20089;-81
2021/09/16 04:25:03;;;;;;;18.63;14.45;;;23.20;92.80;;;;;;4767617;30;20058;-81
2021/09/16 04:27:28;;;;;;;26.63;15.10;;;23.20;92.80;;;;;;4767155;30;20081;-82
2021/09/16 04:29:54;;;;;;;19.70;14.15;;;23.20;92.90;;;;;;4783053;30;20044;-82
2021/09/16 04:32:20;;;;;;;19.45;14.10;;;23.10;92.70;;;;;;4783412;30;20042;-82
2021/09/16 04:34:46;;;;;;;19.80;13.48;;;23.10;92.50;;;;;;4752491;30;20031;-82
2021/09/16 04:37:11;;;;;;;21.05;12.95;;;23.10;92.60;;;;;;4767282;30;20031;-82
2021/09/16 04:39:37;;;;;;;19.80;12.90;;;23.10;92.50;;;;;;4766894;30;20356;-82
2021/09/16 04:42:05;;;;;;;20.23;12.23;;;23.10;92.70;;;;;;4767058;30;20035;-82
2021/09/16 04:44:32;;;;;;;18.45;12.27;;;23.10;92.40;;;;;;4767325;30;20327;-81
2021/09/16 04:46:57;;;;;;;18.55;13.30;;;23.00;92.30;;;;;;4781803;30;20251;-81
2021/09/16 04:49:23;;;;;;;22.17;13.27;;;23.10;92.20;;;;;;4781688;30;20110;-82
2021/09/16 04:51:49;;;;;;;22.45;12.85;;;23.10;92.20;;;;;;4766904;30;20038;-81
2021/09/16 04:54:16;;;;;;;18.15;13.43;;;23.10;92.30;;;;;;4752307;30;20020;-82
2021/09/16 04:56:41;;;;;;;16.90;12.43;;;23.10;92.20;;;;;;4767547;30;20028;-81
2021/09/16 04:59:07;;;;;;;18.13;12.38;;;23.10;92.20;;;;;;4767386;30;20481;-81
2021/09/16 05:01:33;;;;;;;16.17;12.02;;;23.20;92.00;;;;;;4752538;30;20331;-81
2021/09/16 05:03:59;;;;;;;19.27;11.77;;;23.20;91.90;;;;;;4767574;30;20055;-82
2021/09/16 05:06:24;;;;;;;19.48;13.52;;;23.20;91.80;;;;;;4767670;30;20235;-83
2021/09/16 05:08:50;;;;;;;19.15;13.27;;;23.20;91.80;;;;;;4767137;30;20043;-84
2021/09/16 05:11:16;;;;;;;16.80;13.65;;;23.30;91.80;;;;;;4767465;30;20043;-83
2021/09/16 05:13:41;;;;;;;18.13;13.05;;;23.30;91.80;;;;;;4738273;30;20036;-83
2021/09/16 05:16:07;;;;;;;20.17;13.80;;;23.40;91.80;;;;;;4745133;30;20070;-83
2021/09/16 05:18:33;;;;;;;17.17;13.07;;;23.50;91.70;;;;;;4734832;30;20040;-83
2021/09/16 05:20:59;;;;;;;19.10;14.48;;;23.50;91.60;;;;;;4749204;30;20043;-83
2021/09/16 05:23:24;;;;;;;17.77;13.43;;;23.70;91.60;;;;;;4734438;30;20057;-83
2021/09/16 05:25:50;;;;;;;21.83;14.25;;;23.70;91.60;;;;;;4749058;30;20087;-83
2021/09/16 05:28:16;;;;;;;18.92;14.88;;;23.80;91.70;;;;;;4734236;30;20105;-83
2021/09/16 05:30:42;;;;;;;21.40;15.18;;;23.80;91.40;;;;;;4765361;30;20032;-83
2021/09/16 05:33:09;;;;;;;22.52;15.30;;;23.80;91.40;;;;;;4734293;30;20127;-83
2021/09/16 05:35:36;;;;;;;19.90;15.60;;;23.80;91.50;;;;;;4734513;30;20192;-83
2021/09/16 05:38:02;;;;;;;;;;;23.80;91.60;;;;;;4748700;30;20028;-82
2021/09/16 05:40:28;;;;;;;22.38;15.38;;;23.80;91.50;;;;;;4734229;30;20034;-83
2021/09/16 05:42:53;;;;;;;26.48;16.48;;;23.70;91.70;;;;;;4748528;30;20095;-83
2021/09/16 05:45:19;;;;;;;20.30;15.95;;;23.60;91.90;;;;;;4748098;30;20378;-83
2021/09/16 05:47:45;;;;;;;23.25;15.02;;;23.60;92.10;;;;;;4748143;30;20039;-83
2021/09/16 05:50:11;;;;;;;26.35;15.98;;;23.60;92.10;;;;;;4748299;30;20032;-83
2021/09/16 05:52:37;;;;;;;28.20;16.15;;;23.50;92.30;;;;;;4752091;30;20028;-83
2021/09/16 05:55:05;;;;;;;26.13;16.80;;;23.50;92.70;;;;;;4737017;30;20035;-83
2021/09/16 05:57:30;;;;;;;23.67;15.63;;;23.40;92.50;;;;;;4751771;30;20046;-83
2021/09/16 05:59:56;;;;;;;27.25;16.20;;;23.40;92.50;;;;;;4737853;30;20032;-83
2021/09/16 06:02:22;;;;;;;22.00;15.38;;;23.40;92.60;;;;;;4751732;30;20104;-82
2021/09/16 06:04:48;;;;;;;21.35;15.82;;;23.40;93.00;;;;;;4744893;30;20047;-82
2021/09/16 06:07:14;;;;;;;22.38;15.93;;;23.30;92.80;;;;;;4752700;30;20036;-82
2021/09/16 06:09:40;;;;;;;23.98;16.27;;;23.40;92.80;;;;;;4767018;30;20059;-82
2021/09/16 06:12:07;;;;;;;24.92;16.23;;;23.30;92.80;;;;;;4737278;30;20343;-82
2021/09/16 06:14:33;;;;;;;23.02;16.10;;;23.30;93.00;;;;;;4751966;30;20028;-82
2021/09/16 06:17:01;;;;;;;27.30;16.60;;;23.30;93.10;;;;;;4767317;30;20342;-83
2021/09/16 06:19:27;;;;;;;22.10;16.83;;;23.40;93.10;;;;;;4737561;30;20050;-83
2021/09/16 06:21:53;;;;;;;25.77;17.03;;;23.40;93.00;;;;;;4752443;30;20062;-83
2021/09/16 06:24:19;;;;;;;23.90;15.23;;;23.40;93.00;;;;;;4737728;30;20032;-83
2021/09/16 06:26:45;;;;;;;18.92;14.57;;;23.40;93.00;;;;;;4769742;30;20079;-82
2021/09/16 06:29:11;;;;;;;24.40;15.13;;;23.60;92.90;;;;;;4739501;30;20066;-81
2021/09/16 06:31:37;;;;;;;21.88;14.55;;;23.60;92.70;;;;;;4752189;30;20354;-82
2021/09/16 06:34:04;;;;;;;19.75;14.07;;;23.70;92.50;;;;;;4766822;30;20028;-82
2021/09/16 06:36:29;;;;;;;26.40;14.73;;;23.70;92.50;;;;;;4736817;30;20230;-81
2021/09/16 06:38:55;;;;;;;25.17;15.02;;;23.80;92.40;;;;;;4767706;30;20035;-82
2021/09/16 06:41:21;;;;;;;16.35;13.85;;;23.80;92.30;;;;;;4751598;30;20043;-82
2021/09/16 06:43:47;;;;;;;16.40;13.45;;;23.80;92.10;;;;;;4737041;30;20107;-82
2021/09/16 06:46:13;;;;;;;20.30;12.83;;;23.90;92.00;;;;;;4737391;30;20161;-82
2021/09/16 06:48:39;;;;;;;18.23;12.75;;;23.90;91.80;;;;;;4738045;30;20048;-82
2021/09/16 06:51:04;;;;;;;14.65;12.27;;;24.00;91.70;;;;;;4736981;30;20035;-82
2021/09/16 06:53:30;;;;;;;19.70;11.52;;;24.10;91.50;;;;;;4751132;30;20319;-82
2021/09/16 06:55:56;;;;;;;15.82;12.82;;;24.10;91.00;;;;;;4733707;30;20347;-82
2021/09/16 06:58:22;;;;;;;17.27;10.90;;;24.20;91.20;;;;;;4756412;30;20032;-83
2021/09/16 07:00:47;;;;;;;18.92;10.57;;;24.40;90.60;;;;;;4733478;30;20048;-83
2021/09/16 07:03:13;;;;;;;18.30;10.63;;;24.60;90.20;;;;;;4740178;30;20032;-83
2021/09/16 07:05:39;;;;;;;15.88;11.57;;;24.60;90.00;;;;;;4736403;30;20036;-82
2021/09/16 07:08:05;;;;;;;17.23;10.98;;;24.70;89.90;;;;;;4733803;30;20394;-82
2021/09/16 07:10:30;;;;;;;23.35;12.52;;;24.80;89.30;;;;;;4752327;30;20028;-82
2021/09/16 07:12:57;;;;;;;14.85;10.35;;;24.80;89.00;;;;;;4736349;30;20064;-82
2021/09/16 07:15:22;;;;;;;17.73;10.57;;;24.90;88.80;;;;;;4742641;30;20034;-82
2021/09/16 07:17:48;;;;;;;15.57;11.10;;;25.00;88.10;;;;;;4750235;30;20279;-80
2021/09/16 07:20:14;;;;;;;10.57;9.40;;;25.00;87.50;;;;;;4766722;30;20036;-81
2021/09/16 07:22:40;;;;;;;14.13;9.43;;;25.00;87.00;;;;;;4750742;30;20032;-81
2021/09/16 07:25:08;;;;;;;11.68;9.25;;;25.10;86.20;;;;;;4736213;30;20028;-81
2021/09/16 07:27:34;;;;;;;20.63;9.60;;;25.20;85.00;;;;;;4750642;30;20105;-81
2021/09/16 07:29:59;;;;;;;16.98;9.10;;;25.20;85.40;;;;;;4735850;30;20243;-81
2021/09/16 07:32:25;;;;;;;13.77;8.95;;;25.30;84.40;;;;;;4750655;30;20233;-81
2021/09/16 07:34:51;;;;;;;15.88;9.10;;;25.30;83.90;;;;;;4750743;30;20032;-81
2021/09/16 07:37:17;;;;;;;16.33;8.40;;;25.40;84.30;;;;;;4743848;30;20485;-82
2021/09/16 07:39:43;;;;;;;15.20;8.13;;;25.60;84.00;;;;;;4747145;30;20032;-81
2021/09/16 07:42:09;;;;;;;15.95;8.35;;;25.60;82.70;;;;;;4752636;30;20036;-81
2021/09/16 07:44:35;;;;;;;19.77;9.52;;;25.80;81.40;;;;;;4738574;30;20035;-82
2021/09/16 07:47:00;;;;;;;17.98;10.20;;;25.80;81.40;;;;;;4746960;30;20131;-80
2021/09/16 07:49:27;;;;;;;17.38;9.00;;;25.80;81.00;;;;;;4768801;30;20362;-81
2021/09/16 07:51:52;;;;;;;15.57;8.37;;;25.70;80.30;;;;;;4769294;30;20047;-81
2021/09/16 07:54:18;;;;;;;14.80;7.00;;;25.60;79.70;;;;;;4768065;30;20274;-83
2021/09/16 07:56:44;;;;;;;12.80;7.28;;;25.70;80.10;;;;;;4782038;30;20032;-81
2021/09/16 07:59:10;;;;;;;11.63;7.53;;;25.90;80.40;;;;;;4767841;30;20040;-81
2021/09/16 08:01:36;;;;;;;9.52;6.50;;;26.10;79.50;;;;;;4760124;30;20032;-81
2021/09/16 08:04:05;;;;;;;8.63;6.43;;;26.40;79.10;;;;;;4738176;30;20047;-81
2021/09/16 08:06:31;;;;;;;10.77;6.57;;;26.60;76.60;;;;;;4737839;30;20036;-81
2021/09/16 08:08:57;;;;;;;9.52;6.20;;;26.80;75.20;;;;;;4753718;30;20040;-81
2021/09/16 08:11:24;;;;;;;9.82;5.93;;;26.80;74.60;;;;;;4753727;30;20032;-81
2021/09/16 08:13:51;;;;;;;12.88;7.18;;;26.70;75.00;;;;;;4752533;30;20040;-81
2021/09/16 08:16:17;;;;;;;19.63;7.43;;;26.90;75.00;;;;;;4738913;30;20323;-81
2021/09/16 08:18:43;;;;;;;15.32;7.20;;;26.90;74.80;;;;;;4738161;30;20274;-81
2021/09/16 08:21:12;;;;;;;18.42;7.13;;;26.90;75.90;;;;;;4752493;30;20114;-81
2021/09/16 08:23:38;;;;;;;10.45;7.10;;;26.90;75.10;;;;;;4752949;30;20112;-81
2021/09/16 08:26:03;;;;;;;15.57;7.40;;;27.00;74.60;;;;;;4752032;30;20025;-81
2021/09/16 08:28:29;;;;;;;16.50;6.97;;;27.10;75.30;;;;;;4751843;30;20095;-82
2021/09/16 08:30:55;;;;;;;10.23;6.28;;;27.20;75.10;;;;;;4736568;30;20048;-82
2021/09/16 08:33:21;;;;;;;11.05;6.50;;;27.50;73.60;;;;;;4750733;30;20471;-83
2021/09/16 08:35:47;;;;;;;11.70;5.65;;;27.80;72.70;;;;;;4736275;30;20086;-83
2021/09/16 08:38:14;;;;;;;10.85;5.63;;;27.90;71.20;;;;;;4750782;30;20084;-83
2021/09/16 08:40:41;;;;;;;8.27;5.85;;;28.00;70.50;;;;;;4750814;30;20048;-83
2021/09/16 08:43:08;;;;;;;11.20;5.85;;;28.10;70.50;;;;;;4736125;30;20107;-83
2021/09/16 08:45:34;;;;;;;14.05;6.25;;;28.10;70.60;;;;;;4736074;30;20035;-82
2021/09/16 08:48:00;;;;;;;9.73;6.15;;;28.20;69.40;;;;;;4752017;30;20063;-82
2021/09/16 08:50:27;;;;;;;12.55;5.72;;;28.10;69.70;;;;;;4751527;30;20266;-83
2021/09/16 08:52:53;;;;;;;9.18;5.10;;;28.20;68.30;;;;;;4751634;30;20035;-83
2021/09/16 08:55:20;;;;;;;14.30;5.57;;;28.30;67.30;;;;;;4751767;30;20419;-83
2021/09/16 08:57:48;;;;;;;;;;;28.40;68.20;;;;;;4737229;30;20065;-83
2021/09/16 09:00:18;;;;;;;10.63;5.43;;;28.40;67.10;;;;;;4751282;30;19936;-82
2021/09/16 09:02:46;;;;;;;10.38;5.38;;;28.40;67.60;;;;;;4737057;30;20056;-83
2021/09/16 09:05:12;;;;;;;;;;;28.40;67.50;;;;;;4736899;30;20081;-82
2021/09/16 09:07:44;;;;;;;9.68;5.20;;;28.80;66.60;;;;;;4737065;30;20285;-83
2021/09/16 09:10:30;;;;;;;8.02;5.28;;;29.10;65.20;;;;;;4751428;30;20032;-83
2021/09/16 09:12:56;;;;;;;12.02;5.90;;;29.30;64.60;;;;;;4736287;30;20038;-83
2021/09/16 09:15:22;;;;;;;5.25;4.75;;;29.40;62.30;;;;;;4736311;30;20048;-83
2021/09/16 09:18:02;;;;;;;12.15;5.97;;;29.10;61.90;;;;;;4750354;30;20039;-83
2021/09/16 09:20:28;;;;;;;6.60;5.13;;;28.80;63.20;;;;;;4735225;30;20039;-83
2021/09/16 09:22:54;;;;;;;6.97;5.30;;;28.60;64.10;;;;;;4748956;30;20227;-83
2021/09/16 09:25:19;;;;;;;13.00;5.67;;;28.40;64.60;;;;;;4748929;30;20072;-83
2021/09/16 09:27:51;;;;;;;8.80;4.83;;;28.30;64.70;;;;;;4748729;30;20319;-83
2021/09/16 09:30:27;;;;;;;8.68;4.38;;;28.20;64.50;;;;;;4748272;30;20044;-83
2021/09/16 09:32:56;;;;;;;9.48;5.38;;;28.20;65.00;;;;;;4734042;30;20327;-83
2021/09/16 09:35:39;;;;;;;8.05;4.95;;;28.50;65.20;;;;;;4733703;30;20036;-83
2021/09/16 09:38:18;;;;;;;6.72;4.95;;;28.60;64.10;;;;;;4748745;30;20097;-83
2021/09/16 09:40:47;;;;;;;9.85;4.95;;;28.60;64.80;;;;;;4734155;30;20032;-84
2021/09/16 09:43:42;;;;;;;11.27;4.95;;;28.70;64.50;;;;;;4748298;30;20095;-83
2021/09/16 09:46:15;;;;;;;8.48;4.95;;;28.70;63.00;;;;;;4692699;30;20066;-83
2021/09/16 09:49:03;;;;;;;10.38;4.78;;;28.60;64.10;;;;;;4692960;30;20042;-84
2021/09/16 09:51:39;;;;;;;10.93;4.47;;;28.80;63.30;;;;;;4693169;30;20130;-83
2021/09/16 09:54:21;;;;;;;10.52;4.43;;;29.10;63.30;;;;;;4693648;30;20460;-84
2021/09/16 09:57:05;;;;;;;5.75;4.25;;;29.30;62.80;;;;;;4693193;30;20038;-84
2021/09/16 09:59:50;;;;;;;8.70;4.80;;;29.50;61.70;;;;;;4693058;30;20034;-84
2021/09/16 10:02:16;;;;;;;9.60;4.25;;;29.40;61.30;;;;;;4693236;30;20046;-84
2021/09/16 10:04:44;;;;;;;7.85;4.85;;;29.60;61.00;;;;;;4693245;30;20041;-84
2021/09/16 10:07:25;;;;;;;7.00;3.85;;;29.40;61.20;;;;;;4692890;30;20396;-84
2021/09/16 10:09:55;;;;;;;5.35;3.85;;;29.60;60.90;;;;;;4693184;30;20045;-84
2021/09/16 10:12:21;;;;;;;7.50;3.60;;;29.90;60.90;;;;;;4693227;30;20034;-84
2021/09/16 10:14:47;;;;;;;10.37;4.30;;;30.10;59.70;;;;;;4692977;30;20148;-84
2021/09/16 10:17:12;;;;;;;8.23;4.07;;;30.40;59.60;;;;;;4704642;30;20045;-83
2021/09/16 10:19:41;;;;;;;5.03;3.23;;;30.50;59.80;;;;;;4695588;30;20396;-83
2021/09/16 10:22:14;;;;;;;5.13;3.42;;;30.60;58.80;;;;;;4731471;30;20399;-83
2021/09/16 10:24:40;;;;;;;7.35;3.08;;;30.50;56.30;;;;;;4763385;30;20342;-83
2021/09/16 10:27:25;;;;;;;6.70;3.53;;;30.10;57.50;;;;;;4763557;30;20032;-83
2021/09/16 10:29:51;;;;;;;5.85;3.70;;;29.90;58.00;;;;;;4762653;30;20081;-83
2021/09/16 10:32:19;;;;;;;10.40;4.53;;;29.50;57.90;;;;;;4763335;30;20036;-83
2021/09/16 10:34:48;;;;;;;6.63;3.80;;;29.60;60.00;;;;;;4747030;30;20020;-83
2021/09/16 10:37:19;;;;;;;4.15;3.35;;;29.60;58.90;;;;;;4732981;30;20044;-83
2021/09/16 10:39:47;;;;;;;9.10;4.25;;;29.30;59.10;;;;;;4752048;30;20059;-82
2021/09/16 10:42:14;;;;;;;6.10;3.28;;;29.10;61.40;;;;;;4737723;30;20047;-83
2021/09/16 10:44:42;;;;;;;8.18;4.10;;;28.80;60.00;;;;;;4734390;30;20068;-82
2021/09/16 10:47:20;;;;;;;8.48;3.60;;;28.70;60.70;;;;;;4753123;30;20098;-82
2021/09/16 10:49:47;;;;;;;6.18;3.00;;;28.60;61.10;;;;;;4737512;30;20040;-81
2021/09/16 10:52:12;;;;;;;6.18;3.47;;;28.50;60.80;;;;;;4755445;30;20035;-82
2021/09/16 10:54:41;;;;;;;6.30;2.70;;;28.30;60.80;;;;;;4738973;30;20032;-82
2021/09/16 10:57:18;;;;;;;4.50;2.97;;;28.20;60.50;;;;;;4719898;30;20105;-82
2021/09/16 10:59:53;;;;;;;10.43;3.47;;;28.40;60.60;;;;;;4734232;30;20307;-82
2021/09/16 11:02:22;;;;;;;6.68;3.33;;;28.60;61.40;;;;;;4750945;30;20274;-82
2021/09/16 11:04:59;;;;;;;9.65;3.40;;;28.90;60.80;;;;;;4737304;30;20044;-82
2021/09/16 11:07:35;;;;;;;5.60;3.00;;;29.20;60.00;;;;;;4738418;30;20043;-81
2021/09/16 11:10:16;;;;;;;4.80;2.83;;;29.60;59.50;;;;;;4728244;30;20351;-81
2021/09/16 11:12:44;;;;;;;8.10;3.58;;;30.00;57.20;;;;;;4735270;30;20048;-81
2021/09/16 11:15:11;;;;;;;4.47;3.17;;;30.10;56.40;;;;;;4745735;30;20024;-81
2021/09/16 11:17:38;;;;;;;7.40;3.10;;;30.20;56.80;;;;;;4754947;30;20028;-84
2021/09/16 11:20:06;;;;;;;4.20;2.70;;;30.10;55.20;;;;;;4742198;30;20047;-80
2021/09/16 11:22:31;;;;;;;6.55;3.05;;;30.00;54.80;;;;;;4762821;30;20100;-80
2021/09/16 11:24:59;;;;;;;6.43;3.00;;;30.10;55.20;;;;;;4750462;30;20039;-80
2021/09/16 11:27:28;;;;;;;6.50;3.03;;;30.20;54.70;;;;;;4770538;30;20028;-81
2021/09/16 11:29:55;;;;;;;6.32;3.00;;;30.20;55.40;;;;;;4748493;30;20436;-80
2021/09/16 11:32:28;;;;;;;4.88;3.30;;;30.30;55.30;;;;;;4718512;30;20033;-81
2021/09/16 11:35:00;;;;;;;6.78;3.00;;;30.30;54.90;;;;;;4735067;30;20197;-81
2021/09/16 11:37:30;;;;;;;4.60;3.08;;;30.10;54.90;;;;;;4764890;30;20036;-81
2021/09/16 11:40:08;;;;;;;7.93;3.75;;;30.30;56.60;;;;;;4750230;30;20031;-81
2021/09/16 11:42:36;;;;;;;5.53;3.20;;;30.50;54.70;;;;;;4739474;30;20050;-81
2021/09/16 11:45:07;;;;;;;6.72;3.45;;;30.40;55.30;;;;;;4732029;30;20114;-81
2021/09/16 11:47:42;;;;;;;7.28;3.45;;;30.70;55.30;;;;;;4745920;30;20108;-81
2021/09/16 11:50:21;;;;;;;6.07;3.17;;;30.70;53.80;;;;;;4731388;30;20044;-81
2021/09/16 11:52:52;;;;;;;5.60;2.78;;;30.60;54.80;;;;;;4746495;30;20032;-81
2021/09/16 11:55:18;;;;;;;9.75;3.10;;;30.50;53.80;;;;;;4746656;30;20322;-81
2021/09/16 11:58:04;;;;;;;6.50;3.27;;;30.50;54.10;;;;;;4732251;30;20359;-81
2021/09/16 12:00:45;;;;;;;5.40;3.35;;;30.30;53.70;;;;;;4731602;30;20040;-80
2021/09/16 12:03:22;;;;;;;7.00;3.45;;;30.00;53.90;;;;;;4731626;30;20099;-81
2021/09/16 12:05:48;;;;;;;;;;;29.60;54.50;;;;;;4738861;30;20043;-81
2021/09/16 12:08:27;;;;;;;5.93;3.33;;;29.60;55.60;;;;;;4736831;30;19917;-81
2021/09/16 12:10:55;;;;;;;7.20;3.40;;;29.50;56.00;;;;;;4755636;30;20146;-80
2021/09/16 12:13:27;;;;;;;6.10;3.45;;;29.40;56.60;;;;;;4763798;30;20091;-80
2021/09/16 12:16:12;;;;;;;3.50;3.05;;;29.40;57.20;;;;;;4775850;30;20058;-81
2021/09/16 12:18:43;;;;;;;7.63;3.95;;;29.50;56.80;;;;;;4761021;30;20036;-81
2021/09/16 12:21:16;;;;;;;6.80;3.60;;;29.70;57.40;;;;;;4731411;30;20445;-81
2021/09/16 12:23:50;;;;;;;9.50;3.97;;;29.80;57.10;;;;;;4731131;30;20047;-81
2021/09/16 12:26:27;;;;;;;7.78;3.58;;;29.80;57.10;;;;;;4745865;30;20044;-82
2021/09/16 12:29:09;;;;;;;6.85;3.53;;;30.00;56.50;;;;;;4731156;30;20111;-81
2021/09/16 12:31:55;;;;;;;5.07;4.05;;;30.20;56.70;;;;;;4745823;30;20033;-81
2021/09/16 12:34:22;;;;;;;5.55;3.83;;;30.20;57.10;;;;;;4745760;30;20032;-81
2021/09/16 12:36:51;;;;;;;6.80;3.78;;;30.50;57.00;;;;;;4731247;30;20041;-82
2021/09/16 12:39:18;;;;;;;6.07;3.33;;;30.80;56.60;;;;;;4745919;30;20040;-81
2021/09/16 12:41:49;;;;;;;5.85;3.65;;;30.90;55.80;;;;;;4731445;30;20044;-81
2021/09/16 12:44:22;;;;;;;8.27;4.03;;;31.10;55.60;;;;;;4730954;30;20032;-81
2021/09/16 12:46:50;;;;;;;7.90;3.88;;;31.20;54.80;;;;;;4751196;30;20079;-81
2021/09/16 12:49:27;;;;;;;5.57;3.85;;;31.40;55.40;;;;;;4748257;30;20035;-81
2021/09/16 12:52:13;;;;;;;7.00;4.32;;;31.80;54.50;;;;;;4748628;30;20032;-81
2021/09/16 12:55:00;;;;;;;9.95;3.88;;;32.20;54.50;;;;;;4748047;30;20095;-81
2021/09/16 12:57:35;;;;;;;9.48;4.03;;;32.20;53.90;;;;;;4763192;30;20227;-82
2021/09/16 13:00:06;;;;;;;8.40;3.80;;;32.30;53.60;;;;;;4733582;30;20032;-81
2021/09/16 13:02:44;;;;;;;7.10;3.90;;;32.10;53.30;;;;;;4748543;30;20039;-81
2021/09/16 13:05:18;;;;;;;7.30;3.25;;;32.00;53.20;;;;;;4748677;30;20032;-82
2021/09/16 13:08:02;;;;;;;7.72;3.67;;;31.90;53.20;;;;;;4733574;30;20059;-82
2021/09/16 13:10:27;;;;;;;5.43;4.07;;;32.00;55.40;;;;;;4723691;30;20040;-81
2021/09/16 13:13:10;;;;;;;10.27;3.43;;;32.10;52.80;;;;;;4744130;30;20032;-80
2021/09/16 13:15:37;;;;;;;9.65;4.03;;;31.90;53.00;;;;;;4733370;30;20131;-80
2021/09/16 13:18:04;;;;;;;10.02;3.65;;;31.50;53.40;;;;;;4733243;30;20032;-81
2021/09/16 13:20:32;;;;;;;5.88;3.88;;;31.30;53.50;;;;;;4763659;30;20024;-80
2021/09/16 13:22:58;;;;;;;10.93;3.90;;;30.80;54.50;;;;;;4733074;30;20032;-80
2021/09/16 13:25:25;;;;;;;8.80;3.58;;;30.50;55.00;;;;;;4733632;30;20032;-80
2021/09/16 13:27:52;;;;;;;7.57;3.28;;;30.40;55.10;;;;;;4733859;30;20231;-81
2021/09/16 13:30:18;;;;;;;5.55;3.83;;;30.60;56.20;;;;;;4748601;30;20227;-81
2021/09/16 13:32:44;;;;;;;6.82;3.47;;;30.90;55.10;;;;;;4733825;30;20032;-82
2021/09/16 13:35:11;;;;;;;6.87;3.77;;;30.90;54.00;;;;;;4748379;30;20066;-82
2021/09/16 13:37:37;;;;;;;;;;;30.90;54.70;;;;;;4733651;30;20059;-82
2021/09/16 13:40:05;;;;;;;5.07;3.00;;;31.00;54.20;;;;;;4748636;30;19910;-82
2021/09/16 13:42:30;;;;;;;3.25;2.78;;;31.20;55.10;;;;;;4748058;30;20043;-82
2021/09/16 13:44:56;;;;;;;7.30;3.73;;;31.40;53.40;;;;;;4764032;30;20032;-82
2021/09/16 13:47:22;;;;;;;4.07;2.80;;;31.40;53.70;;;;;;4731984;30;20072;-82
2021/09/16 13:49:48;;;;;;;5.83;2.93;;;31.30;53.40;;;;;;4730996;30;20050;-82
2021/09/16 13:52:14;;;;;;;4.43;3.30;;;31.10;53.50;;;;;;4734390;30;20036;-82
2021/09/16 13:54:39;;;;;;;7.00;3.20;;;31.00;54.10;;;;;;4733262;30;20126;-82
2021/09/16 13:57:05;;;;;;;6.30;3.83;;;30.70;54.00;;;;;;4748825;30;20043;-82
2021/09/16 13:59:31;;;;;;;6.00;3.47;;;30.70;55.40;;;;;;4736739;30;20274;-82
2021/09/16 14:01:58;;;;;;;6.57;3.50;;;30.70;54.20;;;;;;4746972;30;20032;-82
2021/09/16 14:04:24;;;;;;;10.40;3.08;;;30.70;54.00;;;;;;4741940;30;20032;-82
2021/09/16 14:06:50;;;;;;;4.18;2.75;;;30.80;53.80;;;;;;4731578;30;20040;-82
2021/09/16 14:09:16;;;;;;;5.40;3.20;;;30.70;53.60;;;;;;4731819;30;20064;-82
2021/09/16 14:11:42;;;;;;;5.65;2.78;;;30.80;53.80;;;;;;4717655;30;20036;-81
2021/09/16 14:14:08;;;;;;;10.37;2.93;;;30.80;55.30;;;;;;4729294;30;20032;-82
2021/09/16 14:16:34;;;;;;;7.17;2.53;;;30.80;54.10;;;;;;4742190;30;20038;-82
2021/09/16 14:18:59;;;;;;;3.87;3.10;;;30.90;53.50;;;;;;4767320;30;20099;-82
2021/09/16 14:21:25;;;;;;;7.10;2.60;;;31.00;53.20;;;;;;4767130;30;20036;-82
2021/09/16 14:23:51;;;;;;;4.93;2.70;;;31.10;54.20;;;;;;4762946;30;20047;-82
2021/09/16 14:26:17;;;;;;;5.03;2.83;;;31.20;53.70;;;;;;4752132;30;20040;-82
2021/09/16 14:28:43;;;;;;;4.80;2.87;;;31.30;53.50;;;;;;4760688;30;20028;-82
2021/09/16 14:31:09;;;;;;;6.57;3.10;;;31.30;52.90;;;;;;4734723;30;20028;-82
2021/09/16 14:33:35;;;;;;;10.27;2.90;;;31.00;52.60;;;;;;4719643;30;20044;-82
2021/09/16 14:36:00;;;;;;;5.57;3.07;;;30.70;52.70;;;;;;4719434;30;20025;-82
2021/09/16 14:38:26;;;;;;;6.07;3.00;;;30.80;53.30;;;;;;4734484;30;20037;-82
2021/09/16 14:40:52;;;;;;;7.63;3.07;;;31.00;54.60;;;;;;4734327;30;20397;-82
2021/09/16 14:43:18;;;;;;;14.80;3.07;;;31.10;53.60;;;;;;4732617;30;20039;-82
2021/09/16 14:45:44;;;;;;;6.03;3.07;;;31.10;53.10;;;;;;4767671;30;20066;-82
2021/09/16 14:48:11;;;;;;;5.57;2.63;;;31.20;53.90;;;;;;4751819;30;20040;-82
2021/09/16 14:50:37;;;;;;;9.10;2.80;;;31.10;52.60;;;;;;4761971;30;20036;-82
2021/09/16 14:53:05;;;;;;;5.00;2.10;;;30.80;52.50;;;;;;4737306;30;20098;-82
2021/09/16 14:55:33;;;;;;;9.93;2.63;;;30.60;52.30;;;;;;4752029;30;20020;-82
2021/09/16 14:57:58;;;;;;;5.65;2.60;;;30.60;52.10;;;;;;4751987;30;20028;-82
2021/09/16 15:00:24;;;;;;;4.80;2.53;;;30.40;51.90;;;;;;4737355;30;20050;-82
2021/09/16 15:02:52;;;;;;;3.27;2.23;;;30.20;52.00;;;;;;4748639;30;20063;-82
2021/09/16 15:05:18;;;;;;;4.45;2.30;;;30.10;52.80;;;;;;4765666;30;20039;-82
2021/09/16 15:07:44;;;;;;;6.38;2.30;;;30.10;52.60;;;;;;4751705;30;20031;-82
2021/09/16 15:10:10;;;;;;;10.53;3.23;;;30.20;53.20;;;;;;4737371;30;20044;-82
2021/09/16 15:12:36;;;;;;;10.23;2.73;;;30.20;53.60;;;;;;4751836;30;20040;-82
2021/09/16 15:15:02;;;;;;;8.37;2.73;;;30.20;54.00;;;;;;4757179;30;20047;-82
2021/09/16 15:17:27;;;;;;;9.30;3.00;;;30.20;53.90;;;;;;4783812;30;20354;-83
2021/09/16 15:19:53;;;;;;;3.83;2.03;;;30.20;53.80;;;;;;4759980;30;20032;-82
2021/09/16 15:22:19;;;;;;;11.57;2.43;;;30.10;52.20;;;;;;4717767;30;20407;-82
2021/09/16 15:24:45;;;;;;;7.97;3.30;;;30.20;51.80;;;;;;4739596;30;20032;-82
2021/09/16 15:27:11;;;;;;;7.57;2.00;;;30.20;52.50;;;;;;4751475;30;20028;-82